createdAt,value
2017-08-09T00:01:22.492Z,19.70
2017-08-09T00:03:53.619Z,19.67
2017-08-09T00:06:24.715Z,19.61
2017-08-09T00:08:57.327Z,19.62
2017-08-09T00:11:28.404Z,19.57
2017-08-09T00:14:00.604Z,19.39
2017-08-09T00:16:31.988Z,19.41
2017-08-09T00:19:03.332Z,19.46
2017-08-09T00:21:34.414Z,19.45
2017-08-09T00:24:09.329Z,19.37
2017-08-09T00:26:40.354Z,19.40
2017-08-09T00:29:11.598Z,19.37
2017-08-09T00:31:43.108Z,19.36
2017-08-09T00:34:16.113Z,19.33
2017-08-09T00:36:47.321Z,19.36
2017-08-09T00:39:18.682Z,19.33
2017-08-09T00:41:49.699Z,19.20
2017-08-09T00:44:21.859Z,19.28
2017-08-09T00:46:53.382Z,19.27
2017-08-09T00:49:24.479Z,19.22
2017-08-09T00:51:56.417Z,19.13
2017-08-09T00:54:27.824Z,19.09
2017-08-09T00:57:00.520Z,19.03
2017-08-09T00:59:31.631Z,18.95
2017-08-09T01:02:04.383Z,18.97
2017-08-09T01:04:35.480Z,19.00
2017-08-09T01:07:06.818Z,19.02
2017-08-09T01:09:37.903Z,18.94
2017-08-09T01:12:09.112Z,18.93
2017-08-09T01:14:40.305Z,18.96
2017-08-09T01:17:11.414Z,18.90
2017-08-09T01:19:43.867Z,18.89
2017-08-09T01:22:15.111Z,18.89
2017-08-09T01:24:46.435Z,18.85
2017-08-09T01:27:17.456Z,18.83
2017-08-09T01:29:48.491Z,18.80
2017-08-09T01:32:20.029Z,18.77
2017-08-09T01:34:51.048Z,18.77
2017-08-09T01:37:22.064Z,18.74
2017-08-09T01:39:53.564Z,18.71
2017-08-09T01:42:24.571Z,18.69
2017-08-09T01:44:56.702Z,18.65
2017-08-09T01:47:28.073Z,18.60
2017-08-09T01:50:00.340Z,18.56
2017-08-09T01:52:31.659Z,18.50
2017-08-09T01:55:02.821Z,18.47
2017-08-09T01:57:33.825Z,18.43
2017-08-09T02:00:05.818Z,18.36
2017-08-09T02:02:36.874Z,18.32
2017-08-09T02:05:08.281Z,18.22
2017-08-09T02:07:39.325Z,18.21
2017-08-09T02:10:10.765Z,18.13
2017-08-09T02:12:41.781Z,18.09
2017-08-09T02:15:12.834Z,18.09
2017-08-09T02:17:44.335Z,18.10
2017-08-09T02:20:15.375Z,18.12
2017-08-09T02:22:46.383Z,18.08
2017-08-09T02:25:17.745Z,18.05
2017-08-09T02:27:48.759Z,18.01
2017-08-09T02:30:19.853Z,18.00
2017-08-09T02:32:51.241Z,17.98
2017-08-09T02:35:22.351Z,17.96
2017-08-09T02:37:53.749Z,17.96
2017-08-09T02:40:24.743Z,17.90
2017-08-09T02:42:56.316Z,17.85
2017-08-09T02:45:27.826Z,17.84
2017-08-09T02:48:00.147Z,17.83
2017-08-09T02:50:31.164Z,17.84
2017-08-09T02:53:04.291Z,17.80
2017-08-09T02:55:35.309Z,17.75
2017-08-09T02:58:07.004Z,17.69
2017-08-09T03:00:38.124Z,17.60
2017-08-09T03:03:09.151Z,17.65
2017-08-09T03:05:42.161Z,17.67
2017-08-09T03:08:13.360Z,17.69
2017-08-09T03:10:44.384Z,17.63
2017-08-09T03:13:15.900Z,17.67
2017-08-09T03:15:47.143Z,17.64
2017-08-09T03:18:18.479Z,17.60
2017-08-09T03:20:49.518Z,17.58
2017-08-09T03:23:20.583Z,17.56
2017-08-09T03:25:52.010Z,17.51
2017-08-09T03:28:23.030Z,17.49
2017-08-09T03:30:54.113Z,17.48
2017-08-09T03:33:25.427Z,17.51
2017-08-09T03:35:57.072Z,17.50
2017-08-09T03:38:28.087Z,17.47
2017-08-09T03:41:00.600Z,17.43
2017-08-09T03:43:31.714Z,17.38
2017-08-09T03:46:05.395Z,17.32
2017-08-09T03:48:36.800Z,17.37
2017-08-09T03:51:07.865Z,17.36
2017-08-09T03:56:20.000Z,17.36
2017-08-09T03:58:51.329Z,17.35
2017-08-09T04:02:24.875Z,17.26
2017-08-09T04:04:56.559Z,17.27
2017-08-09T04:07:27.599Z,17.28
2017-08-09T04:09:59.861Z,17.31
2017-08-09T04:12:31.629Z,17.32
2017-08-09T04:15:03.231Z,17.30
2017-08-09T04:17:34.578Z,17.31
2017-08-09T04:20:06.480Z,17.31
2017-08-09T04:22:37.548Z,17.33
2017-08-09T04:25:08.614Z,17.35
2017-08-09T04:27:39.686Z,17.35
2017-08-09T04:30:15.336Z,17.30
2017-08-09T04:32:46.382Z,17.31
2017-08-09T04:35:17.718Z,17.33
2017-08-09T04:37:48.775Z,17.36
2017-08-09T04:40:19.879Z,17.45
2017-08-09T04:42:51.436Z,17.49
2017-08-09T04:45:22.548Z,17.54
2017-08-09T04:47:53.596Z,17.48
2017-08-09T04:50:24.989Z,17.52
2017-08-09T04:52:56.616Z,17.55
2017-08-09T04:55:27.978Z,17.59
2017-08-09T04:58:00.201Z,17.68
2017-08-09T05:00:31.255Z,17.70
2017-08-09T05:03:05.648Z,17.77
2017-08-09T05:05:36.675Z,17.85
2017-08-09T05:08:08.987Z,17.81
2017-08-09T05:10:40.014Z,17.94
2017-08-09T05:13:41.892Z,18.02
2017-08-09T05:16:13.109Z,18.17
2017-08-09T05:18:44.554Z,18.30
2017-08-09T05:21:15.599Z,18.40
2017-08-09T05:23:46.616Z,18.54
2017-08-09T05:26:18.291Z,18.69
2017-08-09T05:28:49.344Z,18.79
2017-08-09T05:31:20.634Z,18.68
2017-08-09T05:33:51.754Z,18.83
2017-08-09T05:36:22.822Z,18.95
2017-08-09T05:38:54.299Z,18.90
2017-08-09T05:41:25.402Z,18.93
2017-08-09T05:43:56.514Z,19.03
2017-08-09T05:46:27.989Z,19.29
2017-08-09T05:49:00.699Z,19.51
2017-08-09T05:51:31.820Z,19.74
2017-08-09T05:54:04.482Z,19.85
2017-08-09T05:56:36.856Z,19.96
2017-08-09T05:59:07.899Z,20.16
2017-08-09T06:01:38.927Z,20.34
2017-08-09T06:04:11.587Z,20.15
2017-08-09T06:06:42.592Z,20.03
2017-08-09T06:09:13.908Z,20.08
2017-08-09T06:11:44.971Z,20.22
2017-08-09T06:14:16.517Z,20.39
2017-08-09T06:16:47.519Z,20.53
2017-08-09T06:19:18.567Z,20.51
2017-08-09T06:21:50.071Z,20.76
2017-08-09T06:24:21.223Z,20.86
2017-08-09T06:26:52.296Z,21.17
2017-08-09T06:29:23.836Z,21.33
2017-08-09T06:31:54.878Z,21.47
2017-08-09T06:34:25.935Z,21.17
2017-08-09T06:36:58.037Z,21.36
2017-08-09T06:39:29.552Z,21.64
2017-08-09T06:42:03.650Z,21.74
2017-08-09T06:44:34.687Z,21.57
2017-08-09T06:47:06.118Z,21.72
2017-08-09T06:49:37.144Z,21.62
2017-08-09T06:52:08.529Z,21.44
2017-08-09T06:54:39.563Z,21.24
2017-08-09T06:57:10.643Z,21.29
2017-08-09T06:59:43.374Z,21.49
2017-08-09T07:02:14.906Z,21.59
2017-08-09T07:04:45.938Z,21.70
2017-08-09T07:07:17.339Z,21.85
2017-08-09T07:09:48.374Z,21.96
2017-08-09T07:12:19.507Z,22.05
2017-08-09T07:14:50.575Z,22.12
2017-08-09T07:17:21.595Z,21.77
2017-08-09T07:19:53.107Z,21.84
2017-08-09T07:22:24.254Z,22.04
2017-08-09T07:24:55.603Z,22.19
2017-08-09T07:27:27.323Z,21.76
2017-08-09T07:29:59.385Z,22.07
2017-08-09T07:32:31.947Z,22.19
2017-08-09T07:35:03.269Z,22.22
2017-08-09T07:37:34.294Z,22.13
2017-08-09T07:40:09.621Z,22.14
2017-08-09T07:42:40.673Z,22.09
2017-08-09T07:45:11.705Z,22.28
2017-08-09T07:47:43.239Z,21.88
2017-08-09T07:50:15.711Z,21.95
2017-08-09T07:52:47.064Z,22.26
2017-08-09T07:55:18.140Z,22.33
2017-08-09T07:57:49.310Z,22.37
2017-08-09T08:00:22.345Z,22.37
2017-08-09T08:02:53.389Z,22.16
2017-08-09T08:05:24.496Z,22.15
2017-08-09T08:07:56.122Z,22.19
2017-08-09T08:10:27.346Z,22.44
2017-08-09T08:12:59.217Z,22.60
2017-08-09T08:15:30.261Z,22.78
2017-08-09T08:18:04.597Z,22.76
2017-08-09T08:20:36.275Z,23.13
2017-08-09T08:23:07.451Z,23.36
2017-08-09T08:25:38.511Z,23.51
2017-08-09T08:28:10.604Z,23.18
2017-08-09T08:30:41.895Z,23.38
2017-08-09T08:33:12.950Z,23.48
2017-08-09T08:35:44.034Z,23.64
2017-08-09T08:38:19.180Z,23.96
2017-08-09T08:40:50.624Z,23.53
2017-08-09T08:43:21.671Z,23.67
2017-08-09T08:45:52.792Z,23.98
2017-08-09T08:48:24.226Z,24.07
2017-08-09T08:50:55.619Z,24.18
2017-08-09T08:53:26.846Z,24.42
2017-08-09T08:55:58.910Z,24.57
2017-08-09T08:58:30.006Z,24.58
2017-08-09T09:01:03.929Z,23.97
2017-08-09T09:03:35.026Z,23.94
2017-08-09T09:06:07.782Z,24.44
2017-08-09T09:08:38.792Z,24.67
2017-08-09T09:11:10.166Z,24.98
2017-08-09T09:13:41.701Z,25.10
2017-08-09T09:16:13.250Z,25.12
2017-08-09T09:18:44.683Z,25.19
2017-08-09T09:21:15.844Z,25.16
2017-08-09T09:23:46.880Z,25.29
2017-08-09T09:26:17.970Z,25.42
2017-08-09T09:28:49.306Z,25.19
2017-08-09T09:31:20.813Z,25.31
2017-08-09T09:33:51.956Z,24.86
2017-08-09T09:36:23.288Z,24.92
2017-08-09T09:38:54.780Z,25.19
2017-08-09T09:41:25.881Z,25.50
2017-08-09T09:43:57.044Z,25.78
2017-08-09T09:46:28.074Z,26.09
2017-08-09T09:49:05.321Z,26.34
2017-08-09T09:51:36.953Z,26.42
2017-08-09T09:54:09.320Z,26.27
2017-08-09T09:56:40.377Z,26.42
2017-08-09T09:59:11.889Z,26.36
2017-08-09T10:01:42.931Z,26.22
2017-08-09T10:04:16.304Z,26.32
2017-08-09T10:06:47.445Z,26.11
2017-08-09T10:09:18.522Z,26.30
2017-08-09T10:11:50.019Z,26.31
2017-08-09T10:14:21.699Z,26.38
2017-08-09T10:16:52.727Z,25.31
2017-08-09T10:19:24.092Z,25.75
2017-08-09T10:21:55.170Z,26.06
2017-08-09T10:24:26.357Z,26.40
2017-08-09T10:26:59.426Z,26.53
2017-08-09T10:29:30.510Z,26.66
2017-08-09T10:32:03.468Z,26.98
2017-08-09T10:34:34.531Z,27.22
2017-08-09T10:37:05.675Z,27.15
2017-08-09T10:39:37.164Z,27.14
2017-08-09T10:42:09.047Z,27.60
2017-08-09T10:44:40.127Z,27.94
2017-08-09T10:47:12.568Z,28.12
2017-08-09T10:49:43.657Z,28.56
2017-08-09T10:52:16.047Z,27.96
2017-08-09T10:54:47.545Z,28.42
2017-08-09T10:57:18.622Z,28.42
2017-08-09T10:59:49.683Z,28.76
2017-08-09T11:02:21.751Z,28.83
2017-08-09T11:04:52.834Z,28.02
2017-08-09T11:07:24.388Z,28.60
2017-08-09T11:09:55.559Z,28.71
2017-08-09T11:12:26.848Z,28.47
2017-08-09T11:14:58.918Z,28.51
2017-08-09T11:17:30.179Z,28.42
2017-08-09T11:20:04.205Z,28.67
2017-08-09T11:22:35.756Z,29.02
2017-08-09T11:25:06.863Z,29.31
2017-08-09T11:27:37.988Z,29.87
2017-08-09T11:30:11.306Z,29.90
2017-08-09T11:32:42.998Z,30.42
2017-08-09T11:35:14.213Z,30.76
2017-08-09T11:37:45.790Z,30.86
2017-08-09T11:40:17.995Z,31.37
2017-08-09T11:42:49.565Z,31.69
2017-08-09T11:45:20.800Z,31.88
2017-08-09T11:47:52.218Z,32.06
2017-08-09T11:50:23.533Z,31.42
2017-08-09T11:52:54.625Z,30.74
2017-08-09T11:56:27.956Z,30.35
2017-08-09T11:59:00.589Z,30.29
2017-08-09T12:01:32.092Z,30.98
2017-08-09T12:04:04.668Z,31.56
2017-08-09T12:06:35.862Z,31.51
2017-08-09T12:09:07.505Z,31.68
2017-08-09T12:11:38.556Z,32.07
2017-08-09T12:14:12.086Z,32.90
2017-08-09T12:16:43.139Z,33.43
2017-08-09T12:19:14.211Z,33.76
2017-08-09T12:21:45.593Z,34.34
2017-08-09T12:24:17.618Z,34.43
2017-08-09T12:26:48.709Z,34.33
2017-08-09T12:29:20.069Z,34.51
2017-08-09T12:31:51.126Z,35.01
2017-08-09T12:34:23.621Z,35.23
2017-08-09T12:36:54.917Z,35.43
2017-08-09T12:39:26.013Z,35.68
2017-08-09T12:41:58.142Z,35.93
2017-08-09T12:44:29.845Z,36.05
2017-08-09T12:47:02.749Z,36.50
2017-08-09T12:49:34.368Z,36.95
2017-08-09T12:52:07.868Z,37.59
2017-08-09T12:54:39.031Z,38.07
2017-08-09T12:57:10.144Z,39.01
2017-08-09T12:59:41.379Z,39.38
2017-08-09T13:02:14.694Z,39.78
2017-08-09T13:04:46.307Z,39.63
2017-08-09T13:07:17.632Z,39.24
2017-08-09T13:09:51.176Z,38.48
2017-08-09T13:12:22.567Z,37.06
2017-08-09T13:14:54.732Z,37.14
2017-08-09T13:17:38.715Z,37.19
2017-08-09T13:20:11.280Z,36.23
2017-08-09T13:22:42.903Z,38.21
2017-08-09T13:25:14.044Z,39.21
2017-08-09T13:27:45.616Z,41.08
2017-08-09T13:30:16.875Z,42.67
2017-08-09T13:32:47.974Z,45.29
2017-08-09T13:35:19.312Z,47.02
2017-08-09T13:37:50.880Z,46.28
2017-08-09T13:40:22.912Z,44.75
2017-08-09T13:42:53.970Z,45.12
2017-08-09T13:45:25.311Z,45.18
2017-08-09T13:47:56.797Z,45.61
2017-08-09T13:50:28.148Z,44.60
2017-08-09T13:53:00.898Z,42.39
2017-08-09T13:55:32.140Z,41.49
2017-08-09T13:58:06.634Z,40.97
2017-08-09T14:00:41.893Z,39.94
2017-08-09T14:03:13.118Z,39.80
2017-08-09T14:05:44.484Z,39.25
2017-08-09T14:08:18.001Z,37.89
2017-08-09T14:10:49.264Z,36.74
2017-08-09T14:13:23.115Z,39.27
2017-08-09T14:15:54.622Z,41.04
2017-08-09T14:18:26.162Z,43.75
2017-08-09T14:20:57.270Z,45.27
2017-08-09T14:23:28.743Z,47.16
2017-08-09T14:25:59.864Z,47.96
2017-08-09T14:28:36.495Z,48.38
2017-08-09T14:31:08.113Z,48.59
2017-08-09T14:33:40.641Z,50.69
2017-08-09T14:36:13.254Z,50.84
2017-08-09T14:38:44.532Z,49.14
2017-08-09T14:41:16.291Z,50.44
2017-08-09T14:43:48.528Z,52.28
2017-08-09T14:46:21.856Z,53.49
2017-08-09T14:48:55.232Z,52.47
2017-08-09T14:54:23.084Z,52.75
2017-08-09T14:56:54.767Z,53.59
2017-08-09T14:59:26.933Z,54.23
2017-08-09T15:01:58.096Z,53.85
2017-08-09T15:04:29.209Z,52.99
2017-08-09T15:07:00.819Z,51.60
2017-08-09T15:09:32.054Z,49.42
2017-08-09T15:12:03.979Z,49.37
2017-08-09T15:14:35.386Z,49.86
2017-08-09T15:17:06.526Z,49.80
2017-08-09T15:19:37.675Z,47.85
2017-08-09T15:22:09.080Z,47.43
2017-08-09T15:24:40.259Z,49.13
2017-08-09T15:27:11.453Z,49.42
2017-08-09T15:29:43.001Z,49.56
2017-08-09T15:32:14.145Z,50.14
2017-08-09T15:34:45.262Z,50.83
2017-08-09T15:37:16.710Z,49.78
2017-08-09T15:39:47.967Z,47.45
2017-08-09T15:42:19.367Z,45.94
2017-08-09T15:44:50.757Z,46.44
2017-08-09T15:47:22.523Z,46.66
2017-08-09T15:49:53.612Z,46.93
2017-08-09T15:52:24.962Z,46.06
2017-08-09T15:54:56.058Z,45.45
2017-08-09T15:57:28.990Z,46.18
2017-08-09T16:00:00.073Z,45.70
2017-08-09T16:02:31.413Z,43.48
2017-08-09T16:05:02.594Z,41.57
2017-08-09T16:07:33.670Z,39.79
2017-08-09T16:10:06.287Z,38.85
2017-08-09T16:12:37.371Z,38.18
2017-08-09T16:15:08.493Z,37.17
2017-08-09T16:17:39.862Z,36.09
2017-08-09T16:20:10.930Z,35.00
2017-08-09T16:22:42.305Z,34.18
2017-08-09T16:25:13.404Z,33.44
2017-08-09T16:27:44.507Z,32.79
2017-08-09T16:30:15.866Z,32.32
2017-08-09T16:32:47.006Z,31.88
2017-08-09T16:35:18.189Z,31.39
2017-08-09T16:37:49.562Z,30.96
2017-08-09T16:40:20.715Z,30.57
2017-08-09T16:42:51.782Z,30.29
2017-08-09T16:45:24.433Z,29.99
2017-08-09T16:47:55.531Z,29.77
2017-08-09T16:50:26.943Z,29.64
2017-08-09T16:52:58.023Z,29.46
2017-08-09T16:55:29.111Z,29.27
2017-08-09T16:58:00.706Z,29.07
2017-08-09T17:00:32.457Z,28.90
2017-08-09T17:03:03.948Z,28.83
2017-08-09T17:05:35.299Z,28.77
2017-08-09T17:08:06.495Z,28.74
2017-08-09T17:10:37.613Z,28.70
2017-08-09T17:13:25.071Z,28.63
2017-08-09T17:15:56.207Z,28.52
2017-08-09T17:18:27.622Z,28.41
2017-08-09T17:20:58.777Z,28.36
2017-08-09T17:23:29.893Z,28.27
2017-08-09T17:26:02.117Z,28.19
2017-08-09T17:28:33.172Z,28.12
2017-08-09T17:31:04.332Z,28.05
2017-08-09T17:33:35.958Z,27.97
2017-08-09T17:36:07.067Z,27.94
2017-08-09T17:38:38.392Z,27.89
2017-08-09T17:41:09.458Z,27.83
2017-08-09T17:43:40.516Z,27.69
2017-08-09T17:46:11.900Z,27.60
2017-08-09T17:48:42.956Z,27.49
2017-08-09T17:51:14.072Z,27.39
2017-08-09T17:53:45.540Z,27.32
2017-08-09T17:56:16.634Z,27.30
2017-08-09T17:58:47.710Z,27.27
2017-08-09T18:01:19.512Z,27.28
2017-08-09T18:03:50.671Z,27.28
2017-08-09T18:06:23.346Z,27.26
2017-08-09T18:08:54.418Z,27.19
2017-08-09T18:11:25.713Z,27.11
2017-08-09T18:13:57.063Z,27.08
2017-08-09T18:16:28.152Z,27.03
2017-08-09T18:18:59.271Z,26.99
2017-08-09T18:21:30.865Z,26.94
2017-08-09T18:24:02.874Z,26.95
2017-08-09T18:26:34.232Z,26.92
2017-08-09T18:29:05.344Z,26.94
2017-08-09T18:31:36.433Z,26.96
2017-08-09T18:34:07.833Z,26.97
2017-08-09T18:36:38.900Z,27.07
2017-08-09T18:39:09.963Z,27.13
2017-08-09T18:41:41.333Z,27.16
2017-08-09T18:47:07.516Z,27.21
2017-08-09T18:49:38.630Z,27.12
2017-08-09T18:52:09.851Z,27.10
2017-08-09T18:54:41.213Z,27.10
2017-08-09T18:57:12.314Z,27.17
2017-08-09T18:59:43.375Z,27.18
2017-08-09T19:02:14.731Z,27.12
2017-08-09T19:04:45.799Z,26.93
2017-08-09T19:07:17.196Z,26.79
2017-08-09T19:09:48.290Z,26.68
2017-08-09T19:12:19.796Z,26.59
2017-08-09T19:14:51.154Z,26.53
2017-08-09T19:17:23.639Z,26.47
2017-08-09T19:20:25.630Z,26.38
2017-08-09T19:22:57.249Z,26.31
2017-08-09T19:25:28.663Z,26.29
2017-08-09T19:28:00.089Z,26.24
2017-08-09T19:30:31.188Z,26.16
2017-08-09T19:33:02.484Z,26.10
2017-08-09T19:35:34.908Z,26.05
2017-08-09T19:38:06.175Z,25.98
2017-08-09T19:40:37.285Z,25.96
2017-08-09T19:43:08.835Z,25.78
2017-08-09T19:45:39.970Z,25.75
2017-08-09T19:48:11.667Z,25.69
2017-08-09T19:50:42.756Z,25.59
2017-08-09T19:53:14.121Z,25.50
2017-08-09T19:55:45.515Z,25.49
2017-08-09T19:58:16.937Z,25.47
2017-08-09T20:00:49.513Z,25.40
2017-08-09T20:03:25.939Z,25.34
2017-08-09T20:05:57.843Z,25.29
2017-08-09T20:08:29.345Z,25.19
2017-08-09T20:11:00.597Z,25.06
2017-08-09T20:13:31.960Z,24.96
2017-08-09T20:16:04.784Z,24.91
2017-08-09T20:18:35.881Z,24.85
2017-08-09T20:21:07.120Z,24.78
2017-08-09T20:23:38.818Z,24.72
2017-08-09T20:26:10.000Z,24.49
2017-08-09T20:28:41.287Z,24.31
2017-08-09T20:31:12.829Z,24.25
2017-08-09T20:33:44.022Z,24.19
2017-08-09T20:36:29.332Z,24.00
2017-08-09T20:39:02.486Z,23.84
2017-08-09T20:41:33.727Z,23.86
2017-08-09T20:44:06.341Z,23.68
2017-08-09T20:46:37.653Z,23.70
2017-08-09T20:49:10.160Z,23.69
2017-08-09T20:51:41.706Z,23.70
2017-08-09T20:54:13.232Z,23.56
2017-08-09T20:56:44.437Z,23.30
2017-08-09T20:59:15.879Z,23.04
2017-08-09T21:01:48.138Z,23.06
2017-08-09T21:04:19.759Z,22.89
2017-08-09T21:06:50.829Z,22.80
2017-08-09T21:09:23.235Z,22.81
2017-08-09T21:11:55.276Z,22.80
2017-08-09T21:14:26.507Z,22.79
2017-08-09T21:16:57.702Z,22.65
2017-08-09T21:19:29.354Z,22.52
2017-08-09T21:22:00.680Z,22.44
2017-08-09T21:24:31.823Z,22.28
2017-08-09T21:27:03.364Z,22.24
2017-08-09T21:29:34.482Z,22.18
2017-08-09T21:32:05.947Z,22.08
2017-08-09T21:34:37.385Z,21.87
2017-08-09T21:37:08.459Z,21.76
2017-08-09T21:39:39.620Z,21.62
2017-08-09T21:42:10.676Z,21.50
2017-08-09T21:44:41.710Z,21.38
2017-08-09T21:47:14.089Z,21.35
2017-08-09T21:49:45.864Z,21.38
2017-08-09T21:52:17.172Z,21.36
2017-08-09T21:54:48.564Z,21.44
2017-08-09T21:57:20.820Z,21.19
2017-08-09T21:59:51.948Z,21.25
2017-08-09T22:02:24.697Z,21.11
2017-08-09T22:04:56.032Z,21.07
2017-08-09T22:07:27.436Z,21.02
2017-08-09T22:09:58.508Z,20.93
2017-08-09T22:12:30.000Z,20.80
2017-08-09T22:15:01.521Z,20.65
2017-08-09T22:17:32.634Z,20.82
2017-08-09T22:20:05.560Z,20.92
2017-08-09T22:22:36.628Z,20.98
2017-08-09T22:25:07.948Z,20.94
2017-08-09T22:27:39.026Z,20.85
2017-08-09T22:30:10.111Z,20.69
2017-08-09T22:32:41.696Z,20.58
2017-08-09T22:35:12.759Z,20.68
2017-08-09T22:37:43.874Z,20.75
2017-08-09T22:40:15.347Z,20.78
2017-08-09T22:42:46.384Z,20.77
2017-08-09T22:45:17.730Z,20.73
2017-08-09T22:47:48.761Z,20.78
2017-08-09T22:50:19.978Z,20.67
2017-08-09T22:52:51.366Z,20.65
2017-08-09T22:55:23.903Z,20.60
2017-08-09T22:57:55.200Z,20.53
2017-08-09T23:00:26.622Z,20.55
2017-08-09T23:02:57.748Z,20.42
2017-08-09T23:05:28.835Z,20.43
2017-08-09T23:08:00.309Z,20.44
2017-08-09T23:10:31.438Z,20.36
2017-08-09T23:13:02.680Z,20.11
2017-08-09T23:15:34.151Z,20.12
2017-08-09T23:18:05.768Z,20.26
2017-08-09T23:20:36.851Z,20.33
2017-08-09T23:23:08.421Z,20.30
2017-08-09T23:25:39.569Z,20.24
2017-08-09T23:28:10.974Z,20.15
2017-08-09T23:30:42.092Z,20.25
2017-08-09T23:33:13.593Z,20.28
2017-08-09T23:35:44.683Z,20.34
2017-08-09T23:38:15.724Z,20.42
2017-08-09T23:40:47.128Z,20.52
2017-08-09T23:43:18.333Z,20.51
2017-08-09T23:45:49.497Z,20.32
2017-08-09T23:48:21.897Z,20.26
2017-08-09T23:50:53.011Z,20.25
2017-08-09T23:53:25.029Z,20.08
2017-08-09T23:55:56.157Z,20.18
2017-08-09T23:58:27.314Z,20.20
